sensor_id;sensor_type;location;lat;lon;timestamp;temperature;humidity
43884;DHT22;29544;52.018;5.810;2023-04-03T00:00:13;18.00;51.80
43884;DHT22;29544;52.018;5.810;2023-04-03T00:02:39;18.00;51.80
43884;DHT22;29544;52.018;5.810;2023-04-03T00:05:06;17.90;51.80
43884;DHT22;29544;52.018;5.810;2023-04-03T00:07:31;17.90;51.90
43884;DHT22;29544;52.018;5.810;2023-04-03T00:09:57;17.90;51.80
43884;DHT22;29544;52.018;5.810;2023-04-03T00:12:22;17.90;52.50
43884;DHT22;29544;52.018;5.810;2023-04-03T00:14:48;17.80;51.90
43884;DHT22;29544;52.018;5.810;2023-04-03T00:17:13;17.80;52.60
43884;DHT22;29544;52.018;5.810;2023-04-03T00:19:39;17.70;52.50
43884;DHT22;29544;52.018;5.810;2023-04-03T00:22:04;17.70;52.00
43884;DHT22;29544;52.018;5.810;2023-04-03T00:24:30;17.70;51.90
43884;DHT22;29544;52.018;5.810;2023-04-03T00:26:55;17.70;51.90
43884;DHT22;29544;52.018;5.810;2023-04-03T00:29:21;17.70;52.00
43884;DHT22;29544;52.018;5.810;2023-04-03T00:31:46;17.60;52.60
43884;DHT22;29544;52.018;5.810;2023-04-03T00:34:12;17.60;52.10
43884;DHT22;29544;52.018;5.810;2023-04-03T00:36:37;17.60;52.10
43884;DHT22;29544;52.018;5.810;2023-04-03T00:39:03;17.60;52.00
43884;DHT22;29544;52.018;5.810;2023-04-03T00:41:28;17.50;52.10
43884;DHT22;29544;52.018;5.810;2023-04-03T00:43:54;17.50;52.00
43884;DHT22;29544;52.018;5.810;2023-04-03T00:46:20;17.50;52.10
43884;DHT22;29544;52.018;5.810;2023-04-03T00:48:47;17.50;52.10
43884;DHT22;29544;52.018;5.810;2023-04-03T00:51:18;17.40;52.00
43884;DHT22;29544;52.018;5.810;2023-04-03T00:53:50;17.50;52.10
43884;DHT22;29544;52.018;5.810;2023-04-03T00:56:19;17.40;52.10
43884;DHT22;29544;52.018;5.810;2023-04-03T00:58:59;17.40;52.10
43884;DHT22;29544;52.018;5.810;2023-04-03T01:01:27;17.30;52.10
43884;DHT22;29544;52.018;5.810;2023-04-03T01:03:53;17.30;52.10
43884;DHT22;29544;52.018;5.810;2023-04-03T01:06:27;17.30;52.20
43884;DHT22;29544;52.018;5.810;2023-04-03T01:08:54;17.30;52.20
43884;DHT22;29544;52.018;5.810;2023-04-03T01:11:20;17.30;52.20
43884;DHT22;29544;52.018;5.810;2023-04-03T01:13:46;17.20;52.20
43884;DHT22;29544;52.018;5.810;2023-04-03T01:16:12;17.20;52.20
43884;DHT22;29544;52.018;5.810;2023-04-03T01:18:39;17.20;52.20
43884;DHT22;29544;52.018;5.810;2023-04-03T01:26:00;17.10;52.20
43884;DHT22;29544;52.018;5.810;2023-04-03T01:28:29;17.10;52.20
43884;DHT22;29544;52.018;5.810;2023-04-03T01:33:38;17.10;52.20
43884;DHT22;29544;52.018;5.810;2023-04-03T01:36:05;17.00;52.20
43884;DHT22;29544;52.018;5.810;2023-04-03T01:38:31;17.00;52.30
43884;DHT22;29544;52.018;5.810;2023-04-03T01:40:56;17.00;52.20
43884;DHT22;29544;52.018;5.810;2023-04-03T01:43:22;17.00;52.30
43884;DHT22;29544;52.018;5.810;2023-04-03T01:45:48;17.00;52.30
43884;DHT22;29544;52.018;5.810;2023-04-03T01:48:15;16.90;52.20
43884;DHT22;29544;52.018;5.810;2023-04-03T01:50:41;16.90;52.20
43884;DHT22;29544;52.018;5.810;2023-04-03T01:53:07;16.90;52.90
43884;DHT22;29544;52.018;5.810;2023-04-03T01:55:32;16.90;52.30
43884;DHT22;29544;52.018;5.810;2023-04-03T01:57:58;16.80;52.20
43884;DHT22;29544;52.018;5.810;2023-04-03T02:00:23;16.80;52.30
43884;DHT22;29544;52.018;5.810;2023-04-03T02:02:49;16.80;52.30
43884;DHT22;29544;52.018;5.810;2023-04-03T02:05:15;16.80;52.30
43884;DHT22;29544;52.018;5.810;2023-04-03T02:07:40;16.80;52.30
43884;DHT22;29544;52.018;5.810;2023-04-03T02:10:06;16.70;52.20
43884;DHT22;29544;52.018;5.810;2023-04-03T02:12:32;16.70;52.20
43884;DHT22;29544;52.018;5.810;2023-04-03T02:14:58;16.70;52.30
43884;DHT22;29544;52.018;5.810;2023-04-03T02:17:23;16.70;52.30
43884;DHT22;29544;52.018;5.810;2023-04-03T02:19:49;16.70;52.30
43884;DHT22;29544;52.018;5.810;2023-04-03T02:22:14;16.70;52.30
43884;DHT22;29544;52.018;5.810;2023-04-03T02:24:40;16.60;52.20
43884;DHT22;29544;52.018;5.810;2023-04-03T02:27:06;16.60;52.30
43884;DHT22;29544;52.018;5.810;2023-04-03T02:29:32;16.60;52.30
43884;DHT22;29544;52.018;5.810;2023-04-03T02:31:58;16.60;52.30
43884;DHT22;29544;52.018;5.810;2023-04-03T02:34:23;16.50;52.20
43884;DHT22;29544;52.018;5.810;2023-04-03T02:36:49;16.50;52.20
43884;DHT22;29544;52.018;5.810;2023-04-03T02:39:14;16.50;52.20
43884;DHT22;29544;52.018;5.810;2023-04-03T02:41:41;16.50;52.20
43884;DHT22;29544;52.018;5.810;2023-04-03T02:44:08;16.50;52.20
43884;DHT22;29544;52.018;5.810;2023-04-03T02:46:34;16.50;52.30
43884;DHT22;29544;52.018;5.810;2023-04-03T02:49:00;16.50;52.30
43884;DHT22;29544;52.018;5.810;2023-04-03T02:51:25;16.50;52.30
43884;DHT22;29544;52.018;5.810;2023-04-03T02:53:51;16.50;52.30
43884;DHT22;29544;52.018;5.810;2023-04-03T02:56:17;16.40;52.20
43884;DHT22;29544;52.018;5.810;2023-04-03T02:58:43;16.40;52.20
43884;DHT22;29544;52.018;5.810;2023-04-03T03:01:09;16.40;52.30
43884;DHT22;29544;52.018;5.810;2023-04-03T03:03:35;16.40;52.30
43884;DHT22;29544;52.018;5.810;2023-04-03T03:06:12;16.40;52.30
43884;DHT22;29544;52.018;5.810;2023-04-03T03:08:38;16.30;52.20
43884;DHT22;29544;52.018;5.810;2023-04-03T03:11:04;16.30;52.30
43884;DHT22;29544;52.018;5.810;2023-04-03T03:13:31;16.30;52.30
43884;DHT22;29544;52.018;5.810;2023-04-03T03:15:56;16.30;52.30
43884;DHT22;29544;52.018;5.810;2023-04-03T03:18:22;16.30;52.30
43884;DHT22;29544;52.018;5.810;2023-04-03T03:20:55;16.30;52.30
43884;DHT22;29544;52.018;5.810;2023-04-03T03:23:23;16.30;52.40
43884;DHT22;29544;52.018;5.810;2023-04-03T03:25:53;16.20;52.30
43884;DHT22;29544;52.018;5.810;2023-04-03T03:28:19;16.20;52.30
43884;DHT22;29544;52.018;5.810;2023-04-03T03:30:44;16.20;52.30
43884;DHT22;29544;52.018;5.810;2023-04-03T03:33:10;16.20;52.30
43884;DHT22;29544;52.018;5.810;2023-04-03T03:35:36;16.20;52.30
43884;DHT22;29544;52.018;5.810;2023-04-03T03:38:01;16.20;52.30
43884;DHT22;29544;52.018;5.810;2023-04-03T03:40:27;16.20;52.30
43884;DHT22;29544;52.018;5.810;2023-04-03T03:42:52;16.20;52.90
43884;DHT22;29544;52.018;5.810;2023-04-03T03:45:18;16.10;52.20
43884;DHT22;29544;52.018;5.810;2023-04-03T03:47:44;16.10;52.80
43884;DHT22;29544;52.018;5.810;2023-04-03T03:50:10;16.10;52.30
43884;DHT22;29544;52.018;5.810;2023-04-03T03:52:36;16.10;52.20
43884;DHT22;29544;52.018;5.810;2023-04-03T03:55:02;16.00;52.20
43884;DHT22;29544;52.018;5.810;2023-04-03T03:57:27;16.00;52.20
43884;DHT22;29544;52.018;5.810;2023-04-03T03:59:54;16.00;52.20
43884;DHT22;29544;52.018;5.810;2023-04-03T04:02:19;16.00;52.20
43884;DHT22;29544;52.018;5.810;2023-04-03T04:04:45;16.00;52.20
43884;DHT22;29544;52.018;5.810;2023-04-03T04:07:11;16.00;52.20
43884;DHT22;29544;52.018;5.810;2023-04-03T04:09:37;15.90;52.10
43884;DHT22;29544;52.018;5.810;2023-04-03T04:12:02;15.90;52.10
43884;DHT22;29544;52.018;5.810;2023-04-03T04:14:28;16.00;52.20
43884;DHT22;29544;52.018;5.810;2023-04-03T04:16:53;15.90;52.20
43884;DHT22;29544;52.018;5.810;2023-04-03T04:19:19;15.90;52.20
43884;DHT22;29544;52.018;5.810;2023-04-03T04:21:44;15.90;52.10
43884;DHT22;29544;52.018;5.810;2023-04-03T04:24:10;15.90;52.20
43884;DHT22;29544;52.018;5.810;2023-04-03T04:26:36;15.90;52.20
43884;DHT22;29544;52.018;5.810;2023-04-03T04:29:02;15.90;52.20
43884;DHT22;29544;52.018;5.810;2023-04-03T04:31:27;15.80;52.20
43884;DHT22;29544;52.018;5.810;2023-04-03T04:33:53;15.80;52.10
43884;DHT22;29544;52.018;5.810;2023-04-03T04:36:18;15.80;52.10
43884;DHT22;29544;52.018;5.810;2023-04-03T04:38:44;15.80;52.10
43884;DHT22;29544;52.018;5.810;2023-04-03T04:41:10;15.80;52.20
43884;DHT22;29544;52.018;5.810;2023-04-03T04:43:36;15.80;52.20
43884;DHT22;29544;52.018;5.810;2023-04-03T04:46:03;15.80;52.20
43884;DHT22;29544;52.018;5.810;2023-04-03T04:48:29;15.80;52.10
43884;DHT22;29544;52.018;5.810;2023-04-03T04:50:55;15.80;52.20
43884;DHT22;29544;52.018;5.810;2023-04-03T04:53:21;15.80;52.20
43884;DHT22;29544;52.018;5.810;2023-04-03T04:55:46;15.80;52.20
43884;DHT22;29544;52.018;5.810;2023-04-03T04:58:12;15.80;52.20
43884;DHT22;29544;52.018;5.810;2023-04-03T05:00:37;15.80;52.30
43884;DHT22;29544;52.018;5.810;2023-04-03T05:03:03;15.70;52.20
43884;DHT22;29544;52.018;5.810;2023-04-03T05:05:28;15.70;52.30
43884;DHT22;29544;52.018;5.810;2023-04-03T05:07:54;15.70;52.20
43884;DHT22;29544;52.018;5.810;2023-04-03T05:10:19;15.70;52.20
43884;DHT22;29544;52.018;5.810;2023-04-03T05:12:45;15.70;52.30
43884;DHT22;29544;52.018;5.810;2023-04-03T05:15:11;15.70;52.20
43884;DHT22;29544;52.018;5.810;2023-04-03T05:17:37;15.70;52.20
43884;DHT22;29544;52.018;5.810;2023-04-03T05:20:03;15.70;52.30
43884;DHT22;29544;52.018;5.810;2023-04-03T05:22:30;15.70;52.30
43884;DHT22;29544;52.018;5.810;2023-04-03T05:24:55;15.60;52.20
43884;DHT22;29544;52.018;5.810;2023-04-03T05:27:21;15.60;52.20
43884;DHT22;29544;52.018;5.810;2023-04-03T05:29:48;15.60;52.30
43884;DHT22;29544;52.018;5.810;2023-04-03T05:32:14;15.60;52.20
43884;DHT22;29544;52.018;5.810;2023-04-03T05:34:40;15.60;52.30
43884;DHT22;29544;52.018;5.810;2023-04-03T05:37:05;15.60;52.20
43884;DHT22;29544;52.018;5.810;2023-04-03T05:39:31;15.50;52.30
43884;DHT22;29544;52.018;5.810;2023-04-03T05:41:57;15.50;52.20
43884;DHT22;29544;52.018;5.810;2023-04-03T05:44:22;15.50;52.20
43884;DHT22;29544;52.018;5.810;2023-04-03T05:46:48;15.50;52.30
43884;DHT22;29544;52.018;5.810;2023-04-03T05:49:13;15.50;52.30
43884;DHT22;29544;52.018;5.810;2023-04-03T05:51:40;15.50;52.30
43884;DHT22;29544;52.018;5.810;2023-04-03T05:54:21;15.50;52.30
43884;DHT22;29544;52.018;5.810;2023-04-03T05:56:49;15.50;52.30
43884;DHT22;29544;52.018;5.810;2023-04-03T05:59:15;15.50;52.30
43884;DHT22;29544;52.018;5.810;2023-04-03T06:01:41;15.50;52.30
43884;DHT22;29544;52.018;5.810;2023-04-03T06:04:07;15.50;52.90
43884;DHT22;29544;52.018;5.810;2023-04-03T06:06:53;15.50;52.30
43884;DHT22;29544;52.018;5.810;2023-04-03T06:09:21;15.40;52.20
43884;DHT22;29544;52.018;5.810;2023-04-03T06:11:47;15.40;52.30
43884;DHT22;29544;52.018;5.810;2023-04-03T06:14:13;15.40;52.30
43884;DHT22;29544;52.018;5.810;2023-04-03T06:16:39;15.40;52.30
43884;DHT22;29544;52.018;5.810;2023-04-03T06:19:05;15.40;52.20
43884;DHT22;29544;52.018;5.810;2023-04-03T06:21:31;15.40;52.30
43884;DHT22;29544;52.018;5.810;2023-04-03T06:23:56;15.40;52.30
43884;DHT22;29544;52.018;5.810;2023-04-03T06:26:22;15.40;52.30
43884;DHT22;29544;52.018;5.810;2023-04-03T06:28:48;15.30;52.20
43884;DHT22;29544;52.018;5.810;2023-04-03T06:31:13;15.30;52.20
43884;DHT22;29544;52.018;5.810;2023-04-03T06:33:39;15.30;52.20
43884;DHT22;29544;52.018;5.810;2023-04-03T06:36:05;15.30;52.20
43884;DHT22;29544;52.018;5.810;2023-04-03T06:38:32;15.30;52.20
43884;DHT22;29544;52.018;5.810;2023-04-03T06:40:58;15.30;52.20
43884;DHT22;29544;52.018;5.810;2023-04-03T06:43:23;15.30;52.10
43884;DHT22;29544;52.018;5.810;2023-04-03T06:45:50;15.30;52.10
43884;DHT22;29544;52.018;5.810;2023-04-03T06:48:15;15.30;52.10
43884;DHT22;29544;52.018;5.810;2023-04-03T06:50:41;15.30;52.10
43884;DHT22;29544;52.018;5.810;2023-04-03T06:53:07;15.30;52.10
43884;DHT22;29544;52.018;5.810;2023-04-03T06:55:33;15.30;52.20
43884;DHT22;29544;52.018;5.810;2023-04-03T06:57:59;15.20;52.10
43884;DHT22;29544;52.018;5.810;2023-04-03T07:00:24;15.30;52.10
43884;DHT22;29544;52.018;5.810;2023-04-03T07:02:50;15.20;52.10
43884;DHT22;29544;52.018;5.810;2023-04-03T07:05:16;15.20;52.10
43884;DHT22;29544;52.018;5.810;2023-04-03T07:07:42;15.20;52.10
43884;DHT22;29544;52.018;5.810;2023-04-03T07:10:08;15.20;52.10
43884;DHT22;29544;52.018;5.810;2023-04-03T07:12:33;15.20;52.20
43884;DHT22;29544;52.018;5.810;2023-04-03T07:14:59;15.20;52.20
43884;DHT22;29544;52.018;5.810;2023-04-03T07:17:24;15.10;52.10
43884;DHT22;29544;52.018;5.810;2023-04-03T07:19:51;15.10;51.90
43884;DHT22;29544;52.018;5.810;2023-04-03T07:22:17;15.10;51.80
43884;DHT22;29544;52.018;5.810;2023-04-03T07:24:43;15.10;51.60
43884;DHT22;29544;52.018;5.810;2023-04-03T07:27:08;15.10;51.70
43884;DHT22;29544;52.018;5.810;2023-04-03T07:29:34;15.10;51.70
43884;DHT22;29544;52.018;5.810;2023-04-03T07:32:01;15.10;51.70
43884;DHT22;29544;52.018;5.810;2023-04-03T07:34:27;15.10;51.70
43884;DHT22;29544;52.018;5.810;2023-04-03T07:36:52;15.10;51.60
43884;DHT22;29544;52.018;5.810;2023-04-03T07:39:18;15.00;51.60
43884;DHT22;29544;52.018;5.810;2023-04-03T07:41:44;15.00;51.50
43884;DHT22;29544;52.018;5.810;2023-04-03T07:44:09;15.00;51.50
43884;DHT22;29544;52.018;5.810;2023-04-03T07:46:36;15.00;51.40
43884;DHT22;29544;52.018;5.810;2023-04-03T07:49:02;15.00;51.40
43884;DHT22;29544;52.018;5.810;2023-04-03T07:51:27;15.00;51.40
43884;DHT22;29544;52.018;5.810;2023-04-03T07:53:55;15.00;51.40
43884;DHT22;29544;52.018;5.810;2023-04-03T07:56:20;15.00;51.40
43884;DHT22;29544;52.018;5.810;2023-04-03T07:58:46;14.90;51.30
43884;DHT22;29544;52.018;5.810;2023-04-03T08:01:12;14.90;51.30
43884;DHT22;29544;52.018;5.810;2023-04-03T08:03:38;14.90;51.30
43884;DHT22;29544;52.018;5.810;2023-04-03T08:06:06;14.90;51.20
43884;DHT22;29544;52.018;5.810;2023-04-03T08:08:32;14.90;51.20
43884;DHT22;29544;52.018;5.810;2023-04-03T08:11:00;14.90;51.10
43884;DHT22;29544;52.018;5.810;2023-04-03T08:13:26;14.90;51.20
43884;DHT22;29544;52.018;5.810;2023-04-03T08:15:51;14.90;51.10
43884;DHT22;29544;52.018;5.810;2023-04-03T08:18:17;14.90;51.10
43884;DHT22;29544;52.018;5.810;2023-04-03T08:20:46;14.90;51.10
43884;DHT22;29544;52.018;5.810;2023-04-03T08:23:12;14.90;51.00
43884;DHT22;29544;52.018;5.810;2023-04-03T08:25:41;14.90;51.10
43884;DHT22;29544;52.018;5.810;2023-04-03T08:28:08;14.80;51.00
43884;DHT22;29544;52.018;5.810;2023-04-03T08:30:34;14.90;51.00
43884;DHT22;29544;52.018;5.810;2023-04-03T08:33:03;14.90;50.90
43884;DHT22;29544;52.018;5.810;2023-04-03T08:35:29;14.90;50.90
43884;DHT22;29544;52.018;5.810;2023-04-03T08:37:54;14.90;50.80
43884;DHT22;29544;52.018;5.810;2023-04-03T08:40:20;14.90;50.90
43884;DHT22;29544;52.018;5.810;2023-04-03T08:43:12;14.80;50.80
43884;DHT22;29544;52.018;5.810;2023-04-03T08:45:48;14.80;50.70
43884;DHT22;29544;52.018;5.810;2023-04-03T08:48:22;14.80;50.70
43884;DHT22;29544;52.018;5.810;2023-04-03T08:50:53;14.80;50.70
43884;DHT22;29544;52.018;5.810;2023-04-03T08:53:26;14.90;51.40
43884;DHT22;29544;52.018;5.810;2023-04-03T08:55:55;14.90;51.30
43884;DHT22;29544;52.018;5.810;2023-04-03T08:58:30;14.90;51.10
43884;DHT22;29544;52.018;5.810;2023-04-03T09:01:18;14.90;50.90
43884;DHT22;29544;52.018;5.810;2023-04-03T09:03:44;14.90;50.80
43884;DHT22;29544;52.018;5.810;2023-04-03T09:08:57;14.90;50.70
43884;DHT22;29544;52.018;5.810;2023-04-03T09:11:47;14.90;50.70
43884;DHT22;29544;52.018;5.810;2023-04-03T09:16:56;14.90;50.70
43884;DHT22;29544;52.018;5.810;2023-04-03T09:21:53;14.90;50.50
43884;DHT22;29544;52.018;5.810;2023-04-03T09:24:18;14.90;50.40
43884;DHT22;29544;52.018;5.810;2023-04-03T09:27:03;14.90;50.50
43884;DHT22;29544;52.018;5.810;2023-04-03T09:29:29;14.90;50.50
43884;DHT22;29544;52.018;5.810;2023-04-03T09:32:08;14.90;50.50
43884;DHT22;29544;52.018;5.810;2023-04-03T09:34:40;14.90;50.50
43884;DHT22;29544;52.018;5.810;2023-04-03T09:37:07;14.90;50.50
43884;DHT22;29544;52.018;5.810;2023-04-03T09:39:52;14.90;50.40
43884;DHT22;29544;52.018;5.810;2023-04-03T09:42:23;15.00;50.40
43884;DHT22;29544;52.018;5.810;2023-04-03T09:45:01;15.00;50.40
43884;DHT22;29544;52.018;5.810;2023-04-03T09:47:32;15.00;50.30
43884;DHT22;29544;52.018;5.810;2023-04-03T09:50:20;15.00;50.30
43884;DHT22;29544;52.018;5.810;2023-04-03T09:52:49;15.00;50.30
43884;DHT22;29544;52.018;5.810;2023-04-03T09:55:25;15.00;50.30
43884;DHT22;29544;52.018;5.810;2023-04-03T09:58:03;15.00;50.20
43884;DHT22;29544;52.018;5.810;2023-04-03T10:00:37;15.00;50.10
43884;DHT22;29544;52.018;5.810;2023-04-03T10:03:03;15.10;50.30
43884;DHT22;29544;52.018;5.810;2023-04-03T10:05:36;15.10;50.30
43884;DHT22;29544;52.018;5.810;2023-04-03T10:08:24;15.10;50.20
43884;DHT22;29544;52.018;5.810;2023-04-03T10:13:32;15.20;49.90
43884;DHT22;29544;52.018;5.810;2023-04-03T10:16:06;15.30;49.80
43884;DHT22;29544;52.018;5.810;2023-04-03T10:18:56;15.40;49.70
43884;DHT22;29544;52.018;5.810;2023-04-03T10:24:18;15.60;49.80
43884;DHT22;29544;52.018;5.810;2023-04-03T10:27:11;15.70;50.10
43884;DHT22;29544;52.018;5.810;2023-04-03T10:30:04;15.70;50.50
43884;DHT22;29544;52.018;5.810;2023-04-03T10:32:58;15.80;50.50
43884;DHT22;29544;52.018;5.810;2023-04-03T10:35:44;15.90;50.30
43884;DHT22;29544;52.018;5.810;2023-04-03T10:44:00;16.10;49.00
43884;DHT22;29544;52.018;5.810;2023-04-03T10:46:53;16.10;48.60
43884;DHT22;29544;52.018;5.810;2023-04-03T10:49:40;16.20;48.20
43884;DHT22;29544;52.018;5.810;2023-04-03T10:57:39;16.30;47.70
43884;DHT22;29544;52.018;5.810;2023-04-03T11:00:19;16.40;47.60
43884;DHT22;29544;52.018;5.810;2023-04-03T11:03:14;16.40;47.60
43884;DHT22;29544;52.018;5.810;2023-04-03T11:05:45;16.50;47.60
43884;DHT22;29544;52.018;5.810;2023-04-03T11:10:48;16.60;47.20
43884;DHT22;29544;52.018;5.810;2023-04-03T11:13:25;16.60;47.10
43884;DHT22;29544;52.018;5.810;2023-04-03T11:15:53;16.60;47.00
43884;DHT22;29544;52.018;5.810;2023-04-03T11:18:25;16.70;47.00
43884;DHT22;29544;52.018;5.810;2023-04-03T11:21:06;16.70;47.30
43884;DHT22;29544;52.018;5.810;2023-04-03T11:23:35;16.80;46.70
43884;DHT22;29544;52.018;5.810;2023-04-03T11:26:09;16.80;46.60
43884;DHT22;29544;52.018;5.810;2023-04-03T11:28:36;16.80;46.50
43884;DHT22;29544;52.018;5.810;2023-04-03T11:31:15;16.90;46.20
43884;DHT22;29544;52.018;5.810;2023-04-03T11:34:03;16.90;46.20
43884;DHT22;29544;52.018;5.810;2023-04-03T11:36:34;17.00;46.10
43884;DHT22;29544;52.018;5.810;2023-04-03T11:39:23;17.00;45.90
43884;DHT22;29544;52.018;5.810;2023-04-03T11:41:51;17.10;45.80
43884;DHT22;29544;52.018;5.810;2023-04-03T11:44:37;17.10;45.60
43884;DHT22;29544;52.018;5.810;2023-04-03T11:47:05;17.10;45.20
43884;DHT22;29544;52.018;5.810;2023-04-03T11:49:54;17.20;45.10
43884;DHT22;29544;52.018;5.810;2023-04-03T12:00:56;17.30;44.80
43884;DHT22;29544;52.018;5.810;2023-04-03T12:14:01;17.40;43.70
43884;DHT22;29544;52.018;5.810;2023-04-03T12:19:27;17.50;43.70
43884;DHT22;29544;52.018;5.810;2023-04-03T12:22:11;17.50;43.40
43884;DHT22;29544;52.018;5.810;2023-04-03T12:24:39;17.60;43.60
43884;DHT22;29544;52.018;5.810;2023-04-03T12:27:33;17.60;43.10
43884;DHT22;29544;52.018;5.810;2023-04-03T12:30:25;17.60;43.20
43884;DHT22;29544;52.018;5.810;2023-04-03T12:33:27;17.60;42.40
43884;DHT22;29544;52.018;5.810;2023-04-03T12:36:08;17.60;42.40
43884;DHT22;29544;52.018;5.810;2023-04-03T12:38:49;17.60;42.70
43884;DHT22;29544;52.018;5.810;2023-04-03T12:41:37;17.60;42.10
43884;DHT22;29544;52.018;5.810;2023-04-03T12:44:25;17.60;41.70
43884;DHT22;29544;52.018;5.810;2023-04-03T12:47:00;17.60;41.50
43884;DHT22;29544;52.018;5.810;2023-04-03T12:51:54;17.70;42.30
43884;DHT22;29544;52.018;5.810;2023-04-03T12:54:32;17.70;42.80
43884;DHT22;29544;52.018;5.810;2023-04-03T12:59:41;17.80;43.60
43884;DHT22;29544;52.018;5.810;2023-04-03T13:04:47;17.80;43.70
43884;DHT22;29544;52.018;5.810;2023-04-03T13:07:20;17.90;43.80
43884;DHT22;29544;52.018;5.810;2023-04-03T13:09:55;17.90;44.10
43884;DHT22;29544;52.018;5.810;2023-04-03T13:12:21;17.90;44.10
43884;DHT22;29544;52.018;5.810;2023-04-03T13:14:59;17.90;44.20
43884;DHT22;29544;52.018;5.810;2023-04-03T13:17:26;17.90;44.50
43884;DHT22;29544;52.018;5.810;2023-04-03T13:19:53;17.90;44.40
43884;DHT22;29544;52.018;5.810;2023-04-03T13:22:27;18.00;44.50
43884;DHT22;29544;52.018;5.810;2023-04-03T13:24:56;18.00;44.60
43884;DHT22;29544;52.018;5.810;2023-04-03T13:27:22;18.10;44.70
43884;DHT22;29544;52.018;5.810;2023-04-03T13:29:52;18.10;44.70
43884;DHT22;29544;52.018;5.810;2023-04-03T13:32:24;18.10;44.80
43884;DHT22;29544;52.018;5.810;2023-04-03T13:34:50;18.10;44.90
43884;DHT22;29544;52.018;5.810;2023-04-03T13:37:28;18.20;44.80
43884;DHT22;29544;52.018;5.810;2023-04-03T13:42:35;18.20;44.80
43884;DHT22;29544;52.018;5.810;2023-04-03T13:45:24;18.20;44.90
43884;DHT22;29544;52.018;5.810;2023-04-03T13:47:53;18.30;44.80
43884;DHT22;29544;52.018;5.810;2023-04-03T13:50:22;18.30;44.90
43884;DHT22;29544;52.018;5.810;2023-04-03T13:52:55;18.30;44.80
43884;DHT22;29544;52.018;5.810;2023-04-03T13:55:29;18.30;44.80
43884;DHT22;29544;52.018;5.810;2023-04-03T13:58:22;18.30;44.90
43884;DHT22;29544;52.018;5.810;2023-04-03T14:00:55;18.40;44.90
43884;DHT22;29544;52.018;5.810;2023-04-03T14:05:55;18.40;44.80
43884;DHT22;29544;52.018;5.810;2023-04-03T14:08:21;18.40;44.80
43884;DHT22;29544;52.018;5.810;2023-04-03T14:10:47;18.50;44.70
43884;DHT22;29544;52.018;5.810;2023-04-03T14:13:17;18.50;44.80
43884;DHT22;29544;52.018;5.810;2023-04-03T14:15:44;18.50;44.60
43884;DHT22;29544;52.018;5.810;2023-04-03T14:18:15;18.50;44.60
43884;DHT22;29544;52.018;5.810;2023-04-03T14:20:40;18.50;44.60
43884;DHT22;29544;52.018;5.810;2023-04-03T14:23:06;18.50;44.60
43884;DHT22;29544;52.018;5.810;2023-04-03T14:25:32;18.60;44.40
43884;DHT22;29544;52.018;5.810;2023-04-03T14:27:58;18.60;44.20
43884;DHT22;29544;52.018;5.810;2023-04-03T14:30:29;18.60;44.50
43884;DHT22;29544;52.018;5.810;2023-04-03T14:32:55;18.70;44.40
43884;DHT22;29544;52.018;5.810;2023-04-03T14:35:21;18.60;44.30
43884;DHT22;29544;52.018;5.810;2023-04-03T14:37:48;18.60;44.20
43884;DHT22;29544;52.018;5.810;2023-04-03T14:40:16;18.60;44.10
43884;DHT22;29544;52.018;5.810;2023-04-03T14:42:43;18.70;44.20
43884;DHT22;29544;52.018;5.810;2023-04-03T14:45:11;18.70;44.20
43884;DHT22;29544;52.018;5.810;2023-04-03T14:47:44;18.70;44.20
43884;DHT22;29544;52.018;5.810;2023-04-03T14:50:15;18.70;44.10
43884;DHT22;29544;52.018;5.810;2023-04-03T14:52:41;18.70;44.20
43884;DHT22;29544;52.018;5.810;2023-04-03T14:55:07;18.70;44.30
43884;DHT22;29544;52.018;5.810;2023-04-03T14:57:32;18.80;44.20
43884;DHT22;29544;52.018;5.810;2023-04-03T14:59:58;18.80;44.30
43884;DHT22;29544;52.018;5.810;2023-04-03T15:02:29;18.80;44.20
43884;DHT22;29544;52.018;5.810;2023-04-03T15:04:55;18.80;44.40
43884;DHT22;29544;52.018;5.810;2023-04-03T15:07:21;18.80;44.40
43884;DHT22;29544;52.018;5.810;2023-04-03T15:09:48;18.80;45.00
43884;DHT22;29544;52.018;5.810;2023-04-03T15:12:13;18.80;44.30
43884;DHT22;29544;52.018;5.810;2023-04-03T15:14:39;18.80;44.30
43884;DHT22;29544;52.018;5.810;2023-04-03T15:17:06;18.80;44.50
43884;DHT22;29544;52.018;5.810;2023-04-03T15:19:37;18.80;44.40
43884;DHT22;29544;52.018;5.810;2023-04-03T15:22:03;18.80;44.40
43884;DHT22;29544;52.018;5.810;2023-04-03T15:24:28;18.90;44.40
43884;DHT22;29544;52.018;5.810;2023-04-03T15:26:54;18.90;44.30
43884;DHT22;29544;52.018;5.810;2023-04-03T15:29:20;18.90;44.30
43884;DHT22;29544;52.018;5.810;2023-04-03T15:31:45;18.90;44.20
43884;DHT22;29544;52.018;5.810;2023-04-03T15:34:11;18.80;44.20
43884;DHT22;29544;52.018;5.810;2023-04-03T15:36:36;18.80;44.20
43884;DHT22;29544;52.018;5.810;2023-04-03T15:39:02;18.90;44.20
43884;DHT22;29544;52.018;5.810;2023-04-03T15:41:27;18.80;44.00
43884;DHT22;29544;52.018;5.810;2023-04-03T15:43:53;18.80;43.90
43884;DHT22;29544;52.018;5.810;2023-04-03T15:46:18;18.80;43.80
43884;DHT22;29544;52.018;5.810;2023-04-03T15:48:44;18.80;44.00
43884;DHT22;29544;52.018;5.810;2023-04-03T15:51:10;18.70;43.90
43884;DHT22;29544;52.018;5.810;2023-04-03T15:53:35;18.70;43.90
43884;DHT22;29544;52.018;5.810;2023-04-03T15:56:01;18.70;44.00
43884;DHT22;29544;52.018;5.810;2023-04-03T15:58:26;18.70;43.80
43884;DHT22;29544;52.018;5.810;2023-04-03T16:00:52;18.70;43.80
43884;DHT22;29544;52.018;5.810;2023-04-03T16:03:20;18.60;43.70
43884;DHT22;29544;52.018;5.810;2023-04-03T16:05:46;18.70;43.70
43884;DHT22;29544;52.018;5.810;2023-04-03T16:08:11;18.60;43.70
43884;DHT22;29544;52.018;5.810;2023-04-03T16:10:38;18.60;43.80
43884;DHT22;29544;52.018;5.810;2023-04-03T16:13:04;18.50;43.70
43884;DHT22;29544;52.018;5.810;2023-04-03T16:15:30;18.50;43.70
43884;DHT22;29544;52.018;5.810;2023-04-03T16:17:58;18.50;43.70
43884;DHT22;29544;52.018;5.810;2023-04-03T16:20:24;18.50;43.60
43884;DHT22;29544;52.018;5.810;2023-04-03T16:22:50;18.40;43.60
43884;DHT22;29544;52.018;5.810;2023-04-03T16:25:16;18.40;43.40
43884;DHT22;29544;52.018;5.810;2023-04-03T16:27:42;18.40;43.40
43884;DHT22;29544;52.018;5.810;2023-04-03T16:30:08;18.40;43.40
43884;DHT22;29544;52.018;5.810;2023-04-03T16:32:35;18.30;43.40
43884;DHT22;29544;52.018;5.810;2023-04-03T16:35:02;18.30;43.50
43884;DHT22;29544;52.018;5.810;2023-04-03T16:37:28;18.20;43.40
43884;DHT22;29544;52.018;5.810;2023-04-03T16:39:53;18.20;43.40
43884;DHT22;29544;52.018;5.810;2023-04-03T16:42:19;18.20;43.50
43884;DHT22;29544;52.018;5.810;2023-04-03T16:44:45;18.20;43.60
43884;DHT22;29544;52.018;5.810;2023-04-03T16:47:10;18.20;43.60
43884;DHT22;29544;52.018;5.810;2023-04-03T16:49:38;18.10;43.60